Time;durP1;ratioP1;P1;durP2;ratioP2;P2;SDS_P1;SDS_P2;PMS_P1;PMS_P2;Temp;Humidity;BMP_temperature;BMP_pressure;BME280_temperature;BME280_humidity;BME280_pressure;Samples;Min_cycle;Max_cycle;Signal;HPM_P1;HPM_P2
2022/07/15 00:01:55;;;;;;;4.37;1.80;;;;;;;15.75;67.70;100801.34;5119445;28;20466;-67
2022/07/15 00:04:23;;;;;;;4.37;1.70;;;;;;;15.77;67.74;100798.50;5120021;28;20470;-67
2022/07/15 00:06:50;;;;;;;3.43;2.03;;;;;;;15.78;67.15;100802.91;5118967;28;20472;-67
2022/07/15 00:09:17;;;;;;;2.23;1.70;;;;;;;15.66;67.79;100796.03;5120357;28;20500;-67
2022/07/15 00:11:43;;;;;;;7.03;1.70;;;;;;;15.54;68.19;100800.88;5119131;28;20534;-67
2022/07/15 00:14:10;;;;;;;4.53;2.03;;;;;;;15.47;68.57;100802.50;5122005;28;20486;-67
2022/07/15 00:16:37;;;;;;;2.33;1.90;;;;;;;15.33;69.17;100801.22;5122323;28;20477;-67
2022/07/15 00:19:03;;;;;;;3.20;1.97;;;;;;;15.28;69.35;100801.72;5123712;28;20438;-67
2022/07/15 00:21:32;;;;;;;3.53;1.90;;;;;;;15.21;69.64;100801.50;5122534;28;20850;-67
2022/07/15 00:24:07;;;;;;;7.93;2.23;;;;;;;15.19;69.72;100802.66;5123542;28;20562;-67
2022/07/15 00:26:34;;;;;;;8.40;2.20;;;;;;;14.99;70.56;100807.38;5116573;28;20507;-66
2022/07/15 00:29:01;;;;;;;4.53;2.27;;;;;;;14.97;70.80;100802.16;5122707;28;20454;-66
2022/07/15 00:31:28;;;;;;;3.20;2.00;;;;;;;14.95;70.73;100798.78;5122461;28;20501;-67
2022/07/15 00:33:55;;;;;;;3.40;2.60;;;;;;;14.92;70.88;100803.63;5123108;28;20537;-66
2022/07/15 00:36:21;;;;;;;7.13;2.60;;;;;;;14.85;71.07;100801.56;5122106;28;20501;-66
2022/07/15 00:38:49;;;;;;;4.80;1.83;;;;;;;14.82;71.14;100801.00;5123479;28;20506;-67
2022/07/15 00:41:16;;;;;;;3.20;1.97;;;;;;;14.80;71.19;100811.09;5122612;28;20493;-67
2022/07/15 00:43:42;;;;;;;5.27;2.07;;;;;;;14.66;71.88;100809.78;5122337;28;20481;-67
2022/07/15 00:46:09;;;;;;;5.90;2.30;;;;;;;14.61;71.88;100802.16;5121672;28;20503;-66
2022/07/15 00:48:36;;;;;;;6.50;2.40;;;;;;;14.67;71.83;100803.41;5123250;28;20446;-67
2022/07/15 00:51:02;;;;;;;3.37;2.53;;;;;;;14.75;72.13;100816.09;5122247;28;20482;-66
2022/07/15 00:53:31;;;;;;;2.93;2.27;;;;;;;14.81;71.62;100808.25;5122877;28;20446;-67
2022/07/15 00:56:01;;;;;;;6.40;2.80;;;;;;;14.92;71.82;100812.53;5121866;28;20494;-68
2022/07/15 00:58:28;;;;;;;12.23;3.37;;;;;;;14.91;71.29;100813.53;5122397;28;20463;-67
2022/07/15 01:00:55;;;;;;;5.30;2.20;;;;;;;14.87;71.45;100812.16;5121763;28;20503;-66
2022/07/15 01:03:22;;;;;;;5.33;2.43;;;;;;;14.86;71.77;100816.72;5122457;28;20447;-67
2022/07/15 01:05:49;;;;;;;5.47;2.70;;;;;;;14.85;71.66;100812.31;5122260;28;20486;-68
2022/07/15 01:08:17;;;;;;;8.20;3.07;;;;;;;14.91;71.67;100813.53;5122868;28;20443;-65
2022/07/15 01:10:44;;;;;;;4.33;3.03;;;;;;;14.94;71.89;100815.09;5122001;28;20494;-65
2022/07/15 01:13:12;;;;;;;7.43;3.17;;;;;;;14.98;71.23;100819.16;5122675;28;20446;-65
2022/07/15 01:15:39;;;;;;;5.20;2.70;;;;;;;14.97;71.36;100815.63;5121558;28;20470;-65
2022/07/15 01:18:05;;;;;;;3.50;2.83;;;;;;;14.95;71.63;100823.00;5122172;28;20434;-65
2022/07/15 01:20:32;;;;;;;6.00;3.30;;;;;;;15.03;71.34;100812.31;5121481;28;20466;-65
2022/07/15 01:23:00;;;;;;;8.43;3.27;;;;;;;14.92;71.45;100809.84;5122157;28;20445;-66
2022/07/15 01:25:28;;;;;;;5.37;2.73;;;;;;;14.93;71.50;100818.78;5120910;28;20494;-66
2022/07/15 01:27:54;;;;;;;6.87;2.97;;;;;;;14.90;71.66;100814.56;5122147;28;20468;-65
2022/07/15 01:30:21;;;;;;;10.67;3.47;;;;;;;14.84;72.03;100820.53;5120433;28;20450;-65
2022/07/15 01:32:48;;;;;;;3.40;2.13;;;;;;;14.83;71.93;100816.19;5121676;28;20438;-65
2022/07/15 01:35:15;;;;;;;6.87;3.47;;;;;;;14.75;72.44;100821.47;5121150;28;20461;-65
2022/07/15 01:37:41;;;;;;;4.37;2.73;;;;;;;14.66;72.47;100834.84;5122319;28;20510;-65
2022/07/15 01:40:10;;;;;;;5.53;3.00;;;;;;;14.69;72.44;100831.84;5121593;28;20453;-65
2022/07/15 01:42:37;;;;;;;5.83;2.87;;;;;;;14.62;72.50;100827.25;5121348;28;20522;-66
2022/07/15 01:45:04;;;;;;;7.20;3.53;;;;;;;14.56;72.81;100828.66;5120985;28;20525;-66
2022/07/15 01:47:32;;;;;;;5.10;2.73;;;;;;;14.49;72.87;100827.56;5120528;28;20488;-66
2022/07/15 01:49:58;;;;;;;7.53;2.93;;;;;;;14.49;73.05;100830.25;5122126;28;20446;-66
2022/07/15 01:52:24;;;;;;;10.33;3.43;;;;;;;14.38;73.42;100835.88;5120797;28;20507;-66
2022/07/15 01:54:51;;;;;;;6.33;2.87;;;;;;;14.21;73.98;100829.47;5121556;28;20200;-67
2022/07/15 01:57:19;;;;;;;7.43;2.73;;;;;;;14.00;74.61;100827.03;5121011;28;20470;-66
2022/07/15 01:59:46;;;;;;;5.00;2.70;;;;;;;13.93;74.77;100829.44;5120925;28;20491;-67
2022/07/15 02:02:13;;;;;;;6.50;2.97;;;;;;;13.98;75.02;100827.16;5120676;28;20975;-67
2022/07/15 02:04:39;;;;;;;4.67;3.07;;;;;;;13.96;74.81;100825.59;5120950;28;21057;-67
2022/07/15 02:07:06;;;;;;;8.27;3.33;;;;;;;13.86;74.87;100823.81;5121440;28;20819;-67
2022/07/15 02:09:33;;;;;;;4.93;2.90;;;;;;;13.85;75.06;100823.97;5121316;28;20488;-68
2022/07/15 02:12:00;;;;;;;6.07;2.80;;;;;;;13.75;75.30;100830.22;5120754;28;20498;-68
2022/07/15 02:14:28;;;;;;;5.90;3.23;;;;;;;13.68;75.24;100826.44;5120331;28;20473;-68
2022/07/15 02:16:55;;;;;;;5.90;2.70;;;;;;;13.63;75.82;100834.09;5119832;28;20489;-68
2022/07/15 02:19:22;;;;;;;9.40;3.60;;;;;;;13.50;76.16;100830.88;5121083;28;20439;-68
2022/07/15 02:21:48;;;;;;;4.90;3.70;;;;;;;13.42;76.49;100836.97;5120424;28;21051;-68
2022/07/15 02:24:15;;;;;;;6.60;3.37;;;;;;;13.44;76.74;100840.38;5120792;28;20454;-68
2022/07/15 02:26:43;;;;;;;7.70;3.03;;;;;;;13.41;76.72;100832.59;5120021;28;21222;-67
2022/07/15 02:29:10;;;;;;;4.43;2.93;;;;;;;13.47;76.42;100842.75;5121196;28;20449;-67
2022/07/15 02:31:38;;;;;;;7.27;2.97;;;;;;;13.48;76.30;100846.28;5120604;28;20509;-68
2022/07/15 02:34:04;;;;;;;7.73;3.40;;;;;;;13.46;76.49;100845.59;5120953;28;20479;-67
2022/07/15 02:36:31;;;;;;;5.30;3.30;;;;;;;13.41;76.80;100848.69;5120008;28;20849;-67
2022/07/15 02:38:58;;;;;;;12.87;3.23;;;;;;;13.41;76.38;100848.69;5120746;28;20442;-67
2022/07/15 02:41:25;;;;;;;6.17;3.30;;;;;;;13.41;76.61;100847.88;5120069;28;20473;-66
2022/07/15 02:43:51;;;;;;;4.70;2.77;;;;;;;13.41;76.40;100851.38;5120168;28;20447;-66
2022/07/15 02:46:18;;;;;;;3.77;2.87;;;;;;;13.39;76.46;100855.22;5119560;28;20513;-65
2022/07/15 02:48:47;;;;;;;7.67;3.00;;;;;;;13.37;76.64;100855.38;5120705;28;20965;-64
2022/07/15 02:51:14;;;;;;;6.67;2.80;;;;;;;13.35;76.70;100858.19;5120325;28;20480;-65
2022/07/15 02:53:41;;;;;;;5.00;2.60;;;;;;;13.34;76.58;100855.66;5119870;28;20450;-64
2022/07/15 02:56:09;;;;;;;4.83;3.37;;;;;;;13.30;76.69;100854.22;5119824;28;20501;-65
2022/07/15 02:58:35;;;;;;;12.30;3.40;;;;;;;13.24;76.74;100850.25;5120715;28;20441;-65
2022/07/15 03:01:02;;;;;;;8.10;3.20;;;;;;;13.23;77.38;100858.44;5120020;28;20495;-65
2022/07/15 03:03:29;;;;;;;4.60;2.97;;;;;;;13.18;77.36;100861.56;5121183;28;20446;-65
2022/07/15 03:05:58;;;;;;;5.90;3.30;;;;;;;13.14;77.22;100868.19;5119427;28;20494;-65
2022/07/15 03:08:24;;;;;;;6.27;3.80;;;;;;;13.02;77.64;100863.97;5120178;28;20473;-64
2022/07/15 03:10:51;;;;;;;8.60;3.60;;;;;;;13.02;78.24;100866.66;5119479;28;20525;-65
2022/07/15 03:13:18;;;;;;;8.33;3.90;;;;;;;12.96;78.05;100874.28;5120662;28;20454;-65
2022/07/15 03:15:44;;;;;;;6.03;3.17;;;;;;;12.93;78.20;100871.91;5119131;28;20509;-67
2022/07/15 03:18:11;;;;;;;6.70;3.70;;;;;;;12.92;78.72;100867.50;5120243;28;20469;-68
2022/07/15 03:20:38;;;;;;;7.47;3.60;;;;;;;12.88;78.68;100875.97;5119553;28;20466;-68
2022/07/15 03:23:06;;;;;;;7.63;3.33;;;;;;;12.92;78.31;100869.34;5119986;28;20441;-67
2022/07/15 03:25:33;;;;;;;7.97;3.60;;;;;;;12.86;78.73;100869.91;5119231;28;20497;-69
2022/07/15 03:27:59;;;;;;;9.83;4.07;;;;;;;12.90;78.67;100882.06;5120552;28;20501;-70
2022/07/15 03:30:26;;;;;;;8.63;3.83;;;;;;;12.82;78.75;100875.53;5119534;28;20450;-67
2022/07/15 03:32:54;;;;;;;13.87;4.13;;;;;;;12.80;78.96;100876.69;5120498;28;20499;-68
2022/07/15 03:35:20;;;;;;;6.80;3.97;;;;;;;12.85;78.93;100876.28;5119383;28;20485;-67
2022/07/15 03:37:47;;;;;;;8.00;3.43;;;;;;;12.92;78.92;100878.25;5120390;28;20473;-68
2022/07/15 03:40:15;;;;;;;12.77;4.13;;;;;;;12.82;79.14;100877.38;5119497;28;20453;-67
2022/07/15 03:42:42;;;;;;;6.03;4.10;;;;;;;12.97;79.01;100873.31;5120027;28;20449;-67
2022/07/15 03:45:09;;;;;;;5.90;3.47;;;;;;;13.36;77.74;100875.13;5118820;28;20501;-68
2022/07/15 03:47:36;;;;;;;7.90;3.77;;;;;;;14.20;74.64;100877.03;5119657;28;21009;-68
2022/07/15 03:50:03;;;;;;;6.70;4.27;;;;;;;15.02;70.47;100877.94;5124169;28;20881;-68
2022/07/15 03:52:29;;;;;;;7.20;4.10;;;;;;;15.50;68.23;100877.63;5123339;28;20481;-69
2022/07/15 03:54:56;;;;;;;8.77;3.27;;;;;;;16.30;65.16;100882.84;5123015;28;20508;-68
2022/07/15 03:57:24;;;;;;;5.50;3.50;;;;;;;17.21;62.19;100887.47;5123570;28;20520;-69
2022/07/15 03:59:51;;;;;;;8.60;3.10;;;;;;;17.75;59.47;100896.91;5123281;28;20472;-69
2022/07/15 04:02:18;;;;;;;7.17;3.03;;;;;;;18.57;57.08;100893.94;5123204;28;20499;-66
2022/07/15 04:04:45;;;;;;;11.40;3.63;;;;;;;19.14;54.32;100895.47;5123427;28;20515;-67
2022/07/15 04:07:12;;;;;;;8.60;2.50;;;;;;;19.14;54.28;100890.03;5123038;28;20478;-67
2022/07/15 04:09:39;;;;;;;7.40;2.60;;;;;;;19.62;52.74;100890.66;5123394;28;20466;-66
2022/07/15 04:12:06;;;;;;;3.70;2.50;;;;;;;20.31;50.67;100895.84;5121859;28;20466;-69
2022/07/15 04:14:34;;;;;;;8.33;2.43;;;;;;;20.00;50.65;100900.63;5120967;27;20468;-68
2022/07/15 04:17:00;;;;;;;6.63;2.90;;;;;;;20.18;50.48;100901.09;5119484;28;20477;-67
2022/07/15 04:19:27;;;;;;;7.00;2.70;;;;;;;19.28;52.70;100902.78;5122950;28;20438;-67
2022/07/15 04:21:54;;;;;;;9.60;2.63;;;;;;;19.69;51.83;100898.91;5122781;28;20505;-68
2022/07/15 04:24:20;;;;;;;6.73;2.40;;;;;;;20.78;49.04;100896.47;5122861;28;20449;-67
2022/07/15 04:26:47;;;;;;;4.93;2.50;;;;;;;21.00;48.17;100900.00;5119140;28;20514;-68
2022/07/15 04:29:14;;;;;;;3.77;2.53;;;;;;;21.29;46.93;100898.22;5120889;28;20505;-66
2022/07/15 04:31:42;;;;;;;7.20;2.20;;;;;;;21.53;47.04;100912.47;5121297;28;20503;-66
2022/07/15 04:34:08;;;;;;;5.90;2.50;;;;;;;21.36;46.80;100907.28;5122503;28;20462;-67
2022/07/15 04:36:35;;;;;;;6.50;2.40;;;;;;;20.97;46.84;100903.16;5117556;28;20523;-66
2022/07/15 04:39:02;;;;;;;4.23;1.70;;;;;;;21.74;45.79;100909.69;5101667;28;20443;-66
2022/07/15 04:41:28;;;;;;;6.20;1.97;;;;;;;21.71;46.37;100910.09;5101879;28;20520;-67
2022/07/15 04:43:55;;;;;;;6.90;2.20;;;;;;;21.95;44.99;100911.53;5100722;28;20496;-66
2022/07/15 04:46:22;;;;;;;5.17;2.57;;;;;;;21.31;45.85;100911.63;5100515;28;20498;-66
2022/07/15 04:51:33;;;;;;;3.87;2.17;;;;;;;20.82;47.75;100926.81;5102017;28;20465;-68
2022/07/15 04:54:00;;;;;;;5.20;2.10;;;;;;;20.93;47.10;100918.13;5101183;28;20451;-67
2022/07/15 04:56:27;;;;;;;11.60;2.17;;;;;;;20.96;46.91;100906.06;5101845;28;20486;-67
2022/07/15 04:58:54;;;;;;;7.00;2.10;;;;;;;21.40;46.13;100916.75;5101228;28;20431;-67
2022/07/15 05:01:20;;;;;;;4.53;1.90;;;;;;;21.98;44.75;100915.75;5100695;28;20499;-67
2022/07/15 05:03:47;;;;;;;9.70;2.20;;;;;;;22.88;41.94;100916.59;5101271;28;20955;-67
2022/07/15 05:06:15;;;;;;;6.77;1.90;;;;;;;23.05;42.40;100913.47;5100454;28;20478;-67
2022/07/15 05:08:42;;;;;;;7.00;2.40;;;;;;;23.23;41.32;100910.19;5098348;28;20443;-67
2022/07/15 05:11:09;;;;;;;8.03;2.50;;;;;;;21.63;43.77;100916.53;5099051;28;20498;-67
2022/07/15 05:13:37;;;;;;;3.63;1.77;;;;;;;19.98;48.62;100913.53;5101168;28;20435;-66
2022/07/15 05:16:04;;;;;;;5.10;1.67;;;;;;;19.86;48.80;100927.59;5099218;28;20524;-70
2022/07/15 05:18:31;;;;;;;4.37;1.83;;;;;;;18.25;52.98;100931.78;5101321;28;20522;-68
2022/07/15 05:20:57;;;;;;;6.47;2.60;;;;;;;17.66;56.30;100931.22;5100136;28;21325;-72
2022/07/15 05:23:25;;;;;;;6.40;2.20;;;;;;;17.83;56.17;100923.94;5100487;28;20469;-64
2022/07/15 05:25:52;;;;;;;4.87;2.47;;;;;;;17.42;57.35;100930.19;5100249;28;20554;-64
2022/07/15 05:28:19;;;;;;;5.57;1.97;;;;;;;17.93;56.64;100934.59;5100661;28;20487;-64
2022/07/15 05:30:46;;;;;;;6.07;1.50;;;;;;;17.98;55.54;100930.34;5099295;28;20482;-64
2022/07/15 05:33:13;;;;;;;4.50;1.20;;;;;;;18.01;55.70;100937.28;5101221;28;20451;-64
2022/07/15 05:35:42;;;;;;;10.30;2.00;;;;;;;17.87;56.13;100933.41;5100557;28;20466;-64
2022/07/15 05:38:09;;;;;;;8.57;2.03;;;;;;;18.01;55.93;100932.72;5115960;28;21252;-64
2022/07/15 05:40:37;;;;;;;5.10;1.90;;;;;;;17.79;56.58;100944.22;5121310;28;20507;-64
2022/07/15 05:43:03;;;;;;;7.60;1.90;;;;;;;17.54;57.19;100946.94;5122277;28;20422;-64
2022/07/15 05:45:30;;;;;;;11.20;2.10;;;;;;;17.30;58.40;100939.66;5119995;28;20519;-64
2022/07/15 05:47:57;;;;;;;6.80;2.23;;;;;;;17.03;59.72;100947.06;5121409;28;20418;-64
2022/07/15 05:50:23;;;;;;;6.13;2.43;;;;;;;17.28;58.93;100941.69;5121357;28;20480;-64
2022/07/15 05:52:50;;;;;;;4.87;1.43;;;;;;;17.38;58.10;100947.78;5121613;28;20457;-64
2022/07/15 05:55:17;;;;;;;4.00;1.40;;;;;;;17.65;57.58;100938.50;5120891;28;20901;-64
2022/07/15 05:57:45;;;;;;;8.10;1.70;;;;;;;17.67;57.60;100943.72;5121928;28;20541;-64
2022/07/15 06:00:13;;;;;;;9.73;1.97;;;;;;;17.71;57.65;100950.50;5119812;28;20502;-65
2022/07/15 06:02:40;;;;;;;8.33;1.73;;;;;;;17.58;58.35;100950.97;5121808;28;20438;-65
2022/07/15 06:05:08;;;;;;;5.20;1.77;;;;;;;17.58;57.89;100956.38;5120691;28;20438;-64
2022/07/15 06:07:35;;;;;;;7.77;2.23;;;;;;;17.62;58.25;100954.19;5120591;28;20451;-64
2022/07/15 06:10:01;;;;;;;7.53;1.70;;;;;;;17.78;57.82;100950.66;5120133;28;20517;-64
2022/07/15 06:12:28;;;;;;;6.37;1.83;;;;;;;18.01;57.71;100953.50;5118799;28;20470;-64
2022/07/15 06:14:56;;;;;;;9.30;2.03;;;;;;;17.66;58.52;100960.97;5120786;28;20947;-64
2022/07/15 06:17:23;;;;;;;10.00;2.43;;;;;;;17.37;59.50;100959.59;5120148;28;20478;-64
2022/07/15 06:19:49;;;;;;;6.63;2.07;;;;;;;17.66;58.60;100955.56;5120336;28;20434;-64
2022/07/15 06:22:16;;;;;;;7.30;2.33;;;;;;;17.74;58.57;100966.38;5120585;28;20474;-64
2022/07/15 06:24:43;;;;;;;5.43;1.60;;;;;;;17.46;58.88;100958.59;5120286;28;20446;-64
2022/07/15 06:27:09;;;;;;;5.57;1.80;;;;;;;17.90;58.04;100968.25;5119627;28;20474;-64
2022/07/15 06:29:36;;;;;;;4.90;1.67;;;;;;;18.38;56.56;100969.16;5120111;28;20481;-64
2022/07/15 06:32:07;;;;;;;8.47;1.97;;;;;;;18.63;55.68;100961.78;5120113;28;20473;-65
2022/07/15 06:34:33;;;;;;;10.00;3.10;;;;;;;18.55;55.37;100961.81;5119770;28;20454;-65
2022/07/15 06:37:00;;;;;;;5.63;2.00;;;;;;;18.22;56.75;100961.91;5120402;28;21167;-65
2022/07/15 06:39:27;;;;;;;6.93;2.27;;;;;;;18.40;56.77;100963.53;5120940;28;20469;-65
2022/07/15 06:41:53;;;;;;;9.00;1.60;;;;;;;18.69;55.34;100973.75;5119454;28;20466;-64
2022/07/15 06:44:20;;;;;;;8.80;1.40;;;;;;;18.62;55.17;100965.50;5119359;28;20474;-63
2022/07/15 06:46:47;;;;;;;9.73;1.87;;;;;;;18.46;55.19;100967.44;5119091;28;20470;-63
2022/07/15 06:49:15;;;;;;;7.87;1.50;;;;;;;18.46;55.13;100962.03;5119961;28;20446;-64
2022/07/15 06:51:41;;;;;;;5.30;1.43;;;;;;;20.40;50.31;100956.34;5120092;28;20557;-63
2022/07/15 06:54:08;;;;;;;9.13;2.20;;;;;;;20.40;49.27;100958.22;5120298;28;20472;-64
2022/07/15 06:56:35;;;;;;;4.23;1.77;;;;;;;21.67;46.86;100954.25;5119162;28;20466;-63
2022/07/15 06:59:02;;;;;;;6.37;1.93;;;;;;;21.93;45.36;100953.63;5120194;28;20506;-63
2022/07/15 07:01:28;;;;;;;4.67;1.60;;;;;;;21.63;46.09;100949.19;5119688;28;20470;-63
2022/07/15 07:03:55;;;;;;;6.03;1.37;;;;;;;21.42;46.45;100955.47;5120297;28;20809;-63
2022/07/15 07:06:25;;;;;;;8.70;1.63;;;;;;;21.76;45.22;100956.59;5119758;28;20488;-63
2022/07/15 07:08:52;;;;;;;4.10;1.37;;;;;;;22.35;43.72;100949.91;5120958;28;20433;-63
2022/07/15 07:11:19;;;;;;;7.47;2.07;;;;;;;22.25;44.06;100954.84;5119519;28;20472;-63
2022/07/15 07:13:47;;;;;;;3.10;1.30;;;;;;;23.26;42.10;100954.28;5118545;28;20476;-63
2022/07/15 07:16:14;;;;;;;4.10;1.17;;;;;;;25.10;37.64;100951.63;5119145;28;20499;-63
2022/07/15 07:18:40;;;;;;;2.87;1.20;;;;;;;26.00;36.31;100950.53;5120489;28;20441;-64
2022/07/15 07:21:07;;;;;;;8.90;2.63;;;;;;;24.11;38.98;100950.91;5119244;28;20584;-64
2022/07/15 07:23:35;;;;;;;4.80;1.40;;;;;;;25.59;35.61;100954.69;5121918;28;20434;-64
2022/07/15 07:26:03;;;;;;;4.13;1.23;;;;;;;23.96;38.71;100956.63;5123755;28;20478;-69
2022/07/15 07:28:29;;;;;;;6.90;1.43;;;;;;;26.24;33.95;100946.06;5123737;28;20545;-70
2022/07/15 07:30:56;;;;;;;5.80;1.57;;;;;;;26.19;32.65;100951.41;5123606;28;20978;-70
2022/07/15 07:33:23;;;;;;;4.73;1.07;;;;;;;28.05;29.23;100949.03;5124269;28;20431;-73
2022/07/15 07:35:50;;;;;;;4.07;0.80;;;;;;;25.88;30.81;100947.69;5122721;28;20466;-70
2022/07/15 07:38:17;;;;;;;4.20;0.97;;;;;;;23.96;33.98;100940.25;5123943;28;20470;-70
2022/07/15 07:40:47;;;;;;;3.40;0.70;;;;;;;26.58;30.83;100946.53;5123296;28;20466;-69
2022/07/15 07:43:14;;;;;;;3.33;1.17;;;;;;;24.38;33.34;100948.13;5122985;28;20861;-70
2022/07/15 07:45:41;;;;;;;1.87;0.80;;;;;;;23.66;35.38;100937.94;5122673;28;20487;-70
2022/07/15 07:48:08;;;;;;;3.93;1.07;;;;;;;22.15;38.38;100943.47;5123834;28;20414;-71
2022/07/15 07:50:35;;;;;;;3.90;1.10;;;;;;;22.02;38.89;100938.78;5122889;28;20499;-70
2022/07/15 07:53:02;;;;;;;2.60;0.93;;;;;;;21.67;40.03;100944.19;5124459;28;20422;-71
2022/07/15 07:55:29;;;;;;;3.37;1.20;;;;;;;21.28;41.51;100942.75;5122812;28;20469;-70
2022/07/15 07:57:59;;;;;;;4.20;0.97;;;;;;;21.15;41.93;100945.34;5123636;28;20840;-70
2022/07/15 08:00:27;;;;;;;1.97;0.60;;;;;;;21.20;42.06;100942.91;5122830;28;20458;-71
2022/07/15 08:02:55;;;;;;;4.90;1.10;;;;;;;22.86;38.21;100951.41;5124200;28;20429;-69
2022/07/15 08:05:22;;;;;;;3.13;0.87;;;;;;;23.36;36.42;100942.09;5121806;28;20977;-70
2022/07/15 08:07:49;;;;;;;4.17;1.27;;;;;;;21.76;39.75;100945.72;5123917;28;20532;-69
2022/07/15 08:10:16;;;;;;;4.17;1.30;;;;;;;21.15;41.66;100950.78;5113317;27;20462;-69
2022/07/15 08:12:43;;;;;;;5.40;1.10;;;;;;;20.94;41.62;100951.63;5121828;28;20449;-69
2022/07/15 08:15:12;;;;;;;4.77;1.17;;;;;;;20.63;42.33;100947.28;5122230;28;20457;-71
2022/07/15 08:17:40;;;;;;;8.13;1.30;;;;;;;20.42;42.28;100945.28;5102888;28;20424;-74
2022/07/15 08:20:08;;;;;;;2.60;0.97;;;;;;;20.56;42.79;100955.28;5101792;28;20443;-68
2022/07/15 08:22:36;;;;;;;8.40;1.23;;;;;;;20.27;43.56;100948.84;5115010;28;20449;-71
2022/07/15 08:25:03;;;;;;;2.60;0.80;;;;;;;20.20;44.09;100949.78;5123105;28;20446;-70
2022/07/15 08:27:30;;;;;;;9.00;1.10;;;;;;;19.86;44.50;100948.44;5122211;27;20517;-69
2022/07/15 08:29:57;;;;;;;3.63;1.00;;;;;;;22.27;40.45;100954.66;5122871;28;20537;-69
2022/07/15 08:32:25;;;;;;;3.20;1.10;;;;;;;24.98;34.41;100950.63;5122943;28;20482;-69
2022/07/15 08:34:52;;;;;;;3.20;0.97;;;;;;;27.27;29.77;100959.97;5121959;28;20529;-70
2022/07/15 08:37:18;;;;;;;6.50;0.83;;;;;;;28.76;26.79;100952.50;5122572;28;20477;-70
2022/07/15 08:39:46;;;;;;;2.40;0.90;;;;;;;28.65;26.56;100947.88;5119211;28;20454;-71
2022/07/15 08:42:13;;;;;;;1.83;0.67;;;;;;;29.89;24.62;100951.78;5121343;28;20478;-72
2022/07/15 08:44:40;;;;;;;2.00;0.70;;;;;;;30.26;23.48;100961.41;5122309;28;20465;-69
2022/07/15 08:47:07;;;;;;;3.23;0.87;;;;;;;27.42;27.06;100952.16;5121893;28;20478;-70
2022/07/15 08:49:39;;;;;;;3.27;0.67;;;;;;;27.09;28.19;100951.81;5122050;28;20446;-70
2022/07/15 08:52:06;;;;;;;5.30;1.00;;;;;;;29.07;25.28;100956.66;5122464;28;20466;-70
2022/07/15 08:54:33;;;;;;;3.33;0.83;;;;;;;30.09;23.28;100945.75;5122582;28;20454;-71
2022/07/15 08:57:00;;;;;;;1.73;0.50;;;;;;;28.24;25.83;100953.31;5121413;28;20565;-70
2022/07/15 08:59:27;;;;;;;1.80;0.60;;;;;;;26.72;27.59;100951.88;5122234;28;21005;-72
2022/07/15 09:01:54;;;;;;;2.17;0.70;;;;;;;25.47;29.60;100957.31;5121949;28;20462;-68
2022/07/15 09:04:21;;;;;;;2.83;0.70;;;;;;;25.40;29.34;100962.00;5121064;28;20483;-71
2022/07/15 09:06:50;;;;;;;2.37;0.80;;;;;;;23.40;32.59;100957.00;5122120;28;20500;-71
2022/07/15 09:09:28;;;;;;;1.80;0.60;;;;;;;23.13;33.46;100959.69;5122715;28;20427;-68
2022/07/15 09:12:00;;;;;;;1.50;0.63;;;;;;;25.08;31.77;100951.00;5121302;28;20474;-69
2022/07/15 09:14:29;;;;;;;2.23;0.60;;;;;;;25.46;29.61;100955.59;5121152;28;20449;-68
2022/07/15 09:17:20;;;;;;;1.27;0.60;;;;;;;25.23;30.61;100952.59;5121053;28;20762;-69
2022/07/15 09:20:00;;;;;;;4.80;0.90;;;;;;;24.87;30.40;100956.81;5121840;28;20454;-70
2022/07/15 09:22:30;;;;;;;2.23;0.80;;;;;;;24.62;31.17;100954.81;5121926;28;20892;-70
2022/07/15 09:25:08;;;;;;;2.40;0.60;;;;;;;23.29;33.81;100955.72;5121030;28;20532;-70
2022/07/15 09:27:36;;;;;;;4.50;1.10;;;;;;;22.63;34.79;100954.44;5122140;28;20474;-70
2022/07/15 09:38:40;;;;;;;3.90;0.90;;;;;;;22.48;37.01;100956.47;5118286;28;20562;-69
2022/07/15 09:41:08;;;;;;;1.87;0.80;;;;;;;23.00;35.39;100962.34;5120166;28;20481;-69
2022/07/15 09:43:48;;;;;;;2.93;1.00;;;;;;;22.87;36.41;100958.53;5122075;28;20423;-69
2022/07/15 09:46:14;;;;;;;2.90;0.70;;;;;;;23.07;36.13;100968.69;5119358;28;20462;-69
2022/07/15 09:48:42;;;;;;;3.83;1.57;;;;;;;23.96;34.29;100958.53;5121248;28;20571;-69
2022/07/15 09:51:10;;;;;;;2.73;0.80;;;;;;;23.12;34.89;100955.28;5121421;28;20474;-71
2022/07/15 09:53:40;;;;;;;1.73;0.70;;;;;;;24.41;33.46;100970.41;5121671;28;20456;-69
2022/07/15 09:56:09;;;;;;;2.00;0.40;;;;;;;25.32;32.15;100965.81;5119937;28;20482;-69
2022/07/15 09:58:38;;;;;;;2.73;0.87;;;;;;;25.76;30.36;100971.38;5121626;28;20461;-69
2022/07/15 10:01:04;;;;;;;2.03;0.93;;;;;;;25.23;31.30;100963.56;5120524;28;20490;-69
2022/07/15 10:03:33;;;;;;;2.40;0.70;;;;;;;25.05;31.39;100967.88;5121252;28;20457;-69
2022/07/15 10:06:00;;;;;;;1.80;0.70;;;;;;;26.80;29.39;100973.50;5120651;28;20478;-69
2022/07/15 10:08:27;;;;;;;2.57;0.40;;;;;;;28.78;25.44;100974.28;5121487;28;20492;-69
2022/07/15 10:10:57;;;;;;;2.70;0.80;;;;;;;29.34;24.82;100966.25;5119963;28;20477;-69
2022/07/15 10:13:43;;;;;;;2.50;0.70;;;;;;;30.03;23.24;100964.13;5120647;28;20481;-69
2022/07/15 10:16:27;;;;;;;3.03;0.53;;;;;;;28.26;25.06;100967.66;5119435;28;20482;-69
2022/07/15 10:19:05;;;;;;;1.37;0.50;;;;;;;25.87;28.33;100956.13;5121407;28;20457;-69
2022/07/15 10:21:37;;;;;;;1.30;0.50;;;;;;;24.29;31.35;100955.72;5120223;28;21073;-69
2022/07/15 10:24:16;;;;;;;2.00;0.60;;;;;;;24.33;32.05;100958.88;5120208;28;20818;-70
2022/07/15 10:26:55;;;;;;;2.97;0.50;;;;;;;23.78;32.63;100951.78;5120484;28;21084;-69
2022/07/15 10:29:22;;;;;;;2.03;0.67;;;;;;;22.90;34.59;100955.41;5120916;28;20460;-69
2022/07/15 10:31:57;;;;;;;2.23;0.80;;;;;;;22.77;34.43;100958.06;5119873;28;21052;-70
2022/07/15 10:34:24;;;;;;;1.93;0.60;;;;;;;22.13;34.78;100943.69;5120616;28;20450;-69
2022/07/15 10:37:04;;;;;;;2.00;0.80;;;;;;;23.11;34.18;100950.88;5118589;28;20478;-70
2022/07/15 10:39:53;;;;;;;2.60;0.87;;;;;;;23.30;33.62;100941.06;5120188;28;20430;-69
2022/07/15 10:42:21;;;;;;;3.63;1.07;;;;;;;23.91;32.49;100953.69;5118751;28;20478;-71
2022/07/15 10:45:07;;;;;;;1.50;0.70;;;;;;;24.28;32.27;100951.31;5120178;28;20480;-68
2022/07/15 10:47:34;;;;;;;2.10;0.80;;;;;;;24.85;31.40;100939.78;5118940;28;20559;-68
2022/07/15 10:50:02;;;;;;;4.73;0.60;;;;;;;24.76;31.38;100937.28;5120640;28;20418;-68
2022/07/15 10:52:30;;;;;;;4.40;0.80;;;;;;;24.91;31.44;100938.88;5118695;28;20503;-68
2022/07/15 10:55:06;;;;;;;2.80;1.20;;;;;;;24.19;32.35;100933.47;5118374;28;20457;-69
2022/07/15 10:57:54;;;;;;;2.40;1.13;;;;;;;23.85;33.30;100939.00;5118972;28;20454;-72
2022/07/15 11:00:30;;;;;;;3.00;0.80;;;;;;;22.93;35.42;100937.78;5118655;28;20438;-72
2022/07/15 11:03:17;;;;;;;3.03;0.87;;;;;;;22.71;34.95;100937.09;5100612;28;20450;-73
2022/07/15 11:06:02;;;;;;;2.20;0.80;;;;;;;22.35;35.30;100930.84;5113218;28;20477;-72
2022/07/15 11:08:58;;;;;;;4.10;1.07;;;;;;;22.63;34.92;100937.28;5117980;28;21065;-74
2022/07/15 11:11:50;;;;;;;3.10;0.80;;;;;;;22.86;34.58;100932.34;5119013;28;21138;-73
2022/07/15 11:14:46;;;;;;;1.90;0.50;;;;;;;24.08;32.62;100934.09;5118821;28;20484;-70
2022/07/15 11:17:16;;;;;;;1.60;0.60;;;;;;;24.81;31.40;100931.16;5118352;28;20542;-74
2022/07/15 11:19:43;;;;;;;1.60;0.50;;;;;;;24.54;31.38;100928.53;5120298;28;20452;-67
2022/07/15 11:22:10;;;;;;;2.40;1.13;;;;;;;24.57;31.27;100932.75;5119261;28;20493;-69
2022/07/15 11:24:37;;;;;;;3.13;0.70;;;;;;;24.40;31.92;100926.88;5118616;28;20469;-69
2022/07/15 11:27:04;;;;;;;1.07;0.43;;;;;;;23.97;32.54;100919.22;5119268;28;20478;-70
2022/07/15 11:29:47;;;;;;;1.77;0.60;;;;;;;23.23;34.11;100913.75;5119472;28;21111;-69
2022/07/15 11:32:15;;;;;;;3.27;0.80;;;;;;;23.39;33.18;100920.69;5118453;28;20890;-68
2022/07/15 11:34:43;;;;;;;1.60;0.70;;;;;;;23.18;33.90;100913.53;5119642;28;20461;-67
2022/07/15 11:37:12;;;;;;;4.20;0.60;;;;;;;23.40;33.74;100911.47;5118416;28;20482;-68
2022/07/15 11:39:39;;;;;;;2.67;0.77;;;;;;;22.79;34.48;100920.53;5119510;28;20434;-68
2022/07/15 11:44:52;;;;;;;2.10;0.60;;;;;;;23.37;34.45;100919.25;5118411;28;20440;-68